createdAt,value
2023-02-05T00:01:50.988Z,-1.41
2023-02-05T00:05:51.481Z,-1.46
2023-02-05T00:09:55.271Z,-1.38
2023-02-05T00:13:57.569Z,-1.18
2023-02-05T00:17:58.340Z,-0.79
2023-02-05T00:21:59.268Z,-0.59
2023-02-05T00:26:03.094Z,-0.62
2023-02-05T00:30:03.600Z,-0.64
2023-02-05T00:34:04.426Z,-0.82
2023-02-05T00:38:05.319Z,-0.84
2023-02-05T00:42:09.052Z,-0.93
2023-02-05T00:46:10.592Z,-0.85
2023-02-05T00:50:12.758Z,-0.85
2023-02-05T00:54:14.528Z,-1.37
2023-02-05T00:58:17.762Z,-1.41
2023-02-05T01:02:23.856Z,-1.08
2023-02-05T01:06:24.545Z,-1.11
2023-02-05T01:10:25.227Z,-1.16
2023-02-05T01:14:28.979Z,-1.12
2023-02-05T01:18:29.562Z,-1.08
2023-02-05T01:22:30.184Z,-1.29
2023-02-05T01:26:31.095Z,-1.31
2023-02-05T01:30:34.237Z,-1.39
2023-02-05T01:34:35.197Z,-1.13
2023-02-05T01:38:36.685Z,-1.27
2023-02-05T01:42:37.860Z,-1.28
2023-02-05T01:46:42.756Z,-1.30
2023-02-05T01:50:49.509Z,-1.40
2023-02-05T01:54:53.348Z,-1.30
2023-02-05T01:59:00.075Z,-1.42
2023-02-05T02:03:04.210Z,-1.48
2023-02-05T02:07:09.782Z,-1.51
2023-02-05T02:11:17.387Z,-1.62
2023-02-05T02:15:27.003Z,-1.59
2023-02-05T02:19:44.699Z,-1.71
2023-02-05T02:24:13.142Z,-1.89
2023-02-05T02:28:28.668Z,-2.19
2023-02-05T02:32:41.681Z,-1.86
2023-02-05T02:36:55.915Z,-1.90
2023-02-05T02:41:01.924Z,-1.94
2023-02-05T02:45:11.817Z,-1.98
2023-02-05T02:49:19.968Z,-2.12
2023-02-05T02:53:27.274Z,-2.07
2023-02-05T02:57:32.682Z,-2.20
2023-02-05T03:01:46.947Z,-2.19
2023-02-05T03:05:53.741Z,-2.20
2023-02-05T03:10:01.388Z,-2.46
2023-02-05T03:14:03.029Z,-2.49
2023-02-05T03:18:12.123Z,-2.35
2023-02-05T03:22:12.891Z,-2.32
2023-02-05T03:26:30.135Z,-2.32
2023-02-05T03:30:51.150Z,-2.54
2023-02-05T03:35:16.183Z,-2.33
2023-02-05T03:39:32.086Z,-2.33
2023-02-05T03:43:50.408Z,-2.44
2023-02-05T03:48:30.117Z,-2.54
2023-02-05T03:52:41.211Z,-2.29
2023-02-05T03:56:55.603Z,-2.69
2023-02-05T04:00:57.285Z,-2.36
2023-02-05T04:04:58.069Z,-2.24
2023-02-05T04:09:01.296Z,-2.12
2023-02-05T04:13:03.893Z,-2.35
2023-02-05T04:17:07.742Z,-2.48
2023-02-05T04:21:09.775Z,-2.22
2023-02-05T04:25:16.992Z,-2.18
2023-02-05T04:29:19.980Z,-2.21
2023-02-05T04:33:23.531Z,-2.43
2023-02-05T04:37:28.492Z,-2.07
2023-02-05T04:41:31.803Z,-2.15
2023-02-05T04:45:33.886Z,-2.08
2023-02-05T04:49:36.547Z,-2.26
2023-02-05T04:53:37.192Z,-2.46
2023-02-05T04:57:40.625Z,-2.58
2023-02-05T05:01:41.361Z,-2.61
2023-02-05T05:05:42.076Z,-2.75
2023-02-05T05:09:42.931Z,-2.73
2023-02-05T05:13:46.881Z,-2.85
2023-02-05T05:17:47.359Z,-2.67
2023-02-05T05:21:48.573Z,-2.81
2023-02-05T05:25:52.097Z,-2.78
2023-02-05T05:29:55.329Z,-2.75
2023-02-05T05:33:56.321Z,-2.78
2023-02-05T05:38:00.095Z,-2.81
2023-02-05T05:42:13.312Z,-3.34
2023-02-05T05:46:22.127Z,-3.17
2023-02-05T05:50:23.449Z,-3.10
2023-02-05T05:54:24.182Z,-3.12
2023-02-05T05:58:24.954Z,-3.19
2023-02-05T06:02:28.328Z,-3.49
2023-02-05T06:06:28.938Z,-3.33
2023-02-05T06:10:33.177Z,-3.20
2023-02-05T06:14:33.802Z,-3.09
2023-02-05T06:18:37.017Z,-3.14
2023-02-05T06:22:38.707Z,-2.99
2023-02-05T06:26:40.934Z,-3.28
2023-02-05T06:30:41.788Z,-3.17
2023-02-05T06:34:45.214Z,-3.05
2023-02-05T06:38:46.112Z,-3.14
2023-02-05T06:42:46.554Z,-3.03
2023-02-05T06:46:47.080Z,-2.81
2023-02-05T06:50:50.751Z,-2.88
2023-02-05T06:54:51.300Z,-2.88
2023-02-05T06:58:51.956Z,-2.92
2023-02-05T07:02:55.322Z,-2.68
2023-02-05T07:06:58.611Z,-2.73
2023-02-05T07:10:59.219Z,-2.29
2023-02-05T07:14:59.863Z,-1.87
2023-02-05T07:19:01.610Z,-1.78
2023-02-05T07:23:08.284Z,-1.51
2023-02-05T07:27:08.910Z,-1.40
2023-02-05T07:31:11.878Z,-0.85
2023-02-05T07:35:13.324Z,-0.53
2023-02-05T07:39:16.258Z,-0.56
2023-02-05T07:43:16.558Z,-0.55
2023-02-05T07:47:17.606Z,-0.29
2023-02-05T07:51:22.673Z,-0.28
2023-02-05T07:55:26.070Z,-0.40
2023-02-05T07:59:27.342Z,-0.28
2023-02-05T08:03:27.676Z,-0.16
2023-02-05T08:07:28.057Z,-0.18
2023-02-05T08:11:32.644Z,-0.22
2023-02-05T08:15:33.742Z,0.62
2023-02-05T08:19:34.573Z,0.32
2023-02-05T08:23:35.278Z,0.90
2023-02-05T08:27:41.493Z,1.33
2023-02-05T08:31:42.277Z,1.66
2023-02-05T08:35:42.893Z,2.01
2023-02-05T08:39:44.088Z,2.72
2023-02-05T08:43:52.570Z,3.25
2023-02-05T08:47:55.509Z,3.62
2023-02-05T08:51:56.366Z,4.04
2023-02-05T08:55:59.508Z,3.96
2023-02-05T09:00:02.801Z,3.98
2023-02-05T09:04:03.373Z,3.95
2023-02-05T09:08:04.067Z,3.90
2023-02-05T09:12:05.045Z,4.05
2023-02-05T09:16:08.911Z,3.43
2023-02-05T09:20:10.865Z,3.59
2023-02-05T09:24:15.721Z,3.25
2023-02-05T09:28:18.234Z,3.92
2023-02-05T09:32:21.017Z,4.48
2023-02-05T09:36:24.566Z,4.58
2023-02-05T09:40:30.315Z,4.47
2023-02-05T09:44:57.276Z,4.48
2023-02-05T09:49:06.233Z,4.58
2023-02-05T09:53:13.643Z,4.83
2023-02-05T09:57:19.525Z,5.73
2023-02-05T10:01:34.442Z,6.40
2023-02-05T10:05:50.027Z,5.80
2023-02-05T10:10:18.776Z,5.78
2023-02-05T10:14:32.760Z,5.58
2023-02-05T10:18:49.854Z,5.24
2023-02-05T10:23:15.988Z,5.22
2023-02-05T10:27:23.236Z,5.30
2023-02-05T10:31:44.127Z,5.51
2023-02-05T10:35:59.216Z,5.41
2023-02-05T10:40:03.966Z,5.67
2023-02-05T10:44:16.108Z,6.14
2023-02-05T10:48:43.912Z,6.70
2023-02-05T10:52:44.199Z,7.15
2023-02-05T10:56:47.530Z,7.27
2023-02-05T11:00:47.653Z,7.67
2023-02-05T11:04:55.717Z,7.56
2023-02-05T11:08:56.521Z,7.48
2023-02-05T11:13:05.298Z,7.03
2023-02-05T11:17:13.230Z,6.51
2023-02-05T11:21:15.002Z,6.19
2023-02-05T11:25:26.193Z,6.23
2023-02-05T11:29:29.372Z,5.89
2023-02-05T11:33:34.073Z,5.76
2023-02-05T11:37:34.190Z,5.77
2023-02-05T11:41:48.370Z,5.54
2023-02-05T11:45:56.542Z,5.80
2023-02-05T11:49:58.151Z,5.33
2023-02-05T11:54:02.970Z,5.78
2023-02-05T11:58:06.860Z,6.09
2023-02-05T12:02:42.681Z,5.80
2023-02-05T12:06:50.057Z,5.71
2023-02-05T12:11:01.131Z,5.16
2023-02-05T12:15:18.162Z,5.53
2023-02-05T12:19:26.922Z,5.58
2023-02-05T12:23:45.283Z,5.45
2023-02-05T12:28:10.795Z,5.81
2023-02-05T12:32:31.204Z,5.64
2023-02-05T12:36:51.204Z,5.60
2023-02-05T12:41:08.636Z,5.75
2023-02-05T12:45:36.414Z,5.49
2023-02-05T12:50:14.103Z,5.76
2023-02-05T12:54:43.710Z,5.84
2023-02-05T12:58:51.410Z,6.05
2023-02-05T13:03:07.339Z,5.85
2023-02-05T13:07:18.592Z,5.83
2023-02-05T13:11:28.417Z,5.98
2023-02-05T13:15:36.166Z,5.90
2023-02-05T13:19:42.272Z,5.84
2023-02-05T13:23:58.255Z,6.02
2023-02-05T13:28:37.225Z,6.17
2023-02-05T13:32:39.779Z,6.37
2023-02-05T13:37:23.577Z,6.05
2023-02-05T13:42:14.530Z,6.34
2023-02-05T13:46:55.188Z,6.56
2023-02-05T13:51:28.956Z,6.46
2023-02-05T13:56:15.944Z,6.15
2023-02-05T14:00:18.616Z,6.34
2023-02-05T14:04:30.593Z,6.55
2023-02-05T14:08:40.283Z,6.38
2023-02-05T14:12:41.614Z,6.30
2023-02-05T14:16:41.780Z,6.12
2023-02-05T14:20:45.767Z,6.09
2023-02-05T14:24:51.969Z,5.88
2023-02-05T14:28:54.427Z,5.82
2023-02-05T14:33:03.030Z,5.87
2023-02-05T14:37:06.210Z,5.39
2023-02-05T14:41:15.315Z,5.38
2023-02-05T14:45:19.786Z,5.51
2023-02-05T14:49:27.246Z,5.45
2023-02-05T14:53:30.002Z,5.28
2023-02-05T14:57:42.716Z,5.04
2023-02-05T15:01:55.079Z,4.72
2023-02-05T15:06:02.540Z,4.52
2023-02-05T15:10:10.453Z,4.47
2023-02-05T15:14:41.697Z,4.42
2023-02-05T15:18:44.780Z,4.23
2023-02-05T15:22:55.054Z,4.58
2023-02-05T15:27:04.863Z,4.69
2023-02-05T15:31:29.495Z,4.38
2023-02-05T15:35:33.524Z,4.34
2023-02-05T15:39:45.284Z,4.47
2023-02-05T15:44:02.743Z,4.34
2023-02-05T15:48:05.531Z,4.39
2023-02-05T15:52:07.455Z,4.24
2023-02-05T15:56:15.893Z,4.38
2023-02-05T16:00:27.273Z,4.40
2023-02-05T16:04:33.865Z,4.07
2023-02-05T16:08:33.912Z,4.30
2023-02-05T16:12:34.117Z,4.16
2023-02-05T16:16:42.495Z,3.92
2023-02-05T16:20:48.878Z,3.69
2023-02-05T16:24:53.215Z,3.58
2023-02-05T16:29:00.856Z,3.57
2023-02-05T16:33:07.138Z,3.45
2023-02-05T16:37:11.784Z,3.24
2023-02-05T16:41:25.690Z,2.75
2023-02-05T16:45:29.226Z,2.74
2023-02-05T16:49:34.979Z,2.81
2023-02-05T16:53:40.393Z,2.43
2023-02-05T16:57:47.465Z,2.31
2023-02-05T17:01:48.489Z,2.28
2023-02-05T17:05:59.496Z,2.13
2023-02-05T17:10:18.586Z,1.91
2023-02-05T17:14:35.801Z,2.04
2023-02-05T17:18:36.573Z,2.13
2023-02-05T17:22:39.829Z,1.99
2023-02-05T17:26:43.875Z,1.59
2023-02-05T17:30:45.855Z,1.43
2023-02-05T17:34:46.267Z,1.45
2023-02-05T17:38:50.472Z,1.19
2023-02-05T17:42:50.845Z,1.26
2023-02-05T17:46:51.186Z,1.14
2023-02-05T17:50:55.522Z,1.31
2023-02-05T17:54:59.139Z,1.32
2023-02-05T17:58:59.962Z,1.15
2023-02-05T18:03:00.455Z,1.18
2023-02-05T18:07:00.882Z,0.88
2023-02-05T18:11:03.902Z,0.98
2023-02-05T18:15:04.383Z,0.94
2023-02-05T18:19:04.823Z,0.56
2023-02-05T18:23:05.109Z,0.50
2023-02-05T18:27:08.412Z,0.14
2023-02-05T18:31:11.992Z,0.31
2023-02-05T18:35:14.701Z,0.48
2023-02-05T18:39:15.201Z,0.23
2023-02-05T18:43:17.980Z,0.28
2023-02-05T18:47:18.182Z,0.05
2023-02-05T18:51:23.322Z,0.05
2023-02-05T18:55:23.570Z,0.01
2023-02-05T18:59:26.794Z,0.00
2023-02-05T19:03:27.436Z,0.01
2023-02-05T19:07:27.583Z,-0.01
2023-02-05T19:11:34.079Z,0.11
2023-02-05T19:15:36.787Z,-0.01
2023-02-05T19:19:37.106Z,-0.13
2023-02-05T19:23:37.710Z,-0.23
2023-02-05T19:27:37.974Z,-0.09
2023-02-05T19:31:41.281Z,-0.33
2023-02-05T19:35:43.233Z,-0.46
2023-02-05T19:39:43.580Z,-0.18
2023-02-05T19:43:50.227Z,-0.19
2023-02-05T19:47:52.942Z,-0.23
2023-02-05T19:51:59.514Z,-0.43
2023-02-05T19:56:07.535Z,-0.66
2023-02-05T20:00:09.562Z,-0.61
2023-02-05T20:04:28.801Z,-0.55
2023-02-05T20:08:29.937Z,-0.62
2023-02-05T20:12:30.177Z,-0.39
2023-02-05T20:16:30.345Z,-0.50
2023-02-05T20:20:34.022Z,-0.68
2023-02-05T20:24:34.733Z,-0.51
2023-02-05T20:28:57.186Z,-0.88
2023-02-05T20:32:57.210Z,-0.94
2023-02-05T20:37:04.270Z,-0.91
2023-02-05T20:41:14.350Z,-1.19
2023-02-05T20:45:14.666Z,-1.16
2023-02-05T20:49:18.277Z,-1.61
2023-02-05T20:53:21.677Z,-1.52
2023-02-05T20:57:26.574Z,-1.30
2023-02-05T21:01:32.446Z,-1.31
2023-02-05T21:05:34.745Z,-1.61
2023-02-05T21:09:38.543Z,-1.67
2023-02-05T21:13:41.359Z,-1.59
2023-02-05T21:17:44.868Z,-1.88
2023-02-05T21:21:45.239Z,-1.67
2023-02-05T21:25:49.034Z,-1.81
2023-02-05T21:29:49.232Z,-1.82
2023-02-05T21:33:54.051Z,-1.80
2023-02-05T21:37:56.553Z,-1.62
2023-02-05T21:41:59.135Z,-1.65
2023-02-05T21:46:03.820Z,-1.85
2023-02-05T21:50:03.954Z,-1.79
2023-02-05T21:54:08.229Z,-1.87
2023-02-05T21:58:11.042Z,-1.99
2023-02-05T22:02:13.334Z,-1.96
2023-02-05T22:06:13.704Z,-2.04
2023-02-05T22:10:13.837Z,-2.18
2023-02-05T22:14:16.606Z,-2.20
2023-02-05T22:18:18.760Z,-2.43
2023-02-05T22:22:18.979Z,-2.53
2023-02-05T22:26:22.069Z,-2.69
2023-02-05T22:30:24.872Z,-2.47
2023-02-05T22:34:25.512Z,-2.60
2023-02-05T22:38:26.018Z,-2.52
2023-02-05T22:42:26.980Z,-2.57
2023-02-05T22:46:32.655Z,-2.73
2023-02-05T22:50:32.663Z,-2.68
2023-02-05T22:54:32.777Z,-2.71
2023-02-05T22:58:33.728Z,-2.64
2023-02-05T23:02:36.525Z,-2.57
2023-02-05T23:06:39.740Z,-2.54
2023-02-05T23:10:39.875Z,-3.05
2023-02-05T23:14:39.949Z,-3.01
2023-02-05T23:18:44.505Z,-2.68
2023-02-05T23:22:44.558Z,-2.62
2023-02-05T23:26:48.146Z,-2.46
2023-02-05T23:30:48.410Z,-2.56
2023-02-05T23:34:51.272Z,-2.52
2023-02-05T23:38:51.942Z,-2.42
2023-02-05T23:42:52.441Z,-2.39
2023-02-05T23:46:54.117Z,-2.64
2023-02-05T23:50:59.177Z,-2.74
2023-02-05T23:54:59.346Z,-2.81
2023-02-05T23:59:00.545Z,-3.06
